Terminal Aerodrome Forecast
Issued by NWS Wilmington, OH

Current Version | Previous Version | Graphics & Text | Print | Product List | Glossary On
Versions: 1 2 3 4 5 6 7 8 9 10 11 12 13 14 15 16 17 18 19 20 21 22 23 24 25 26 27
000
FTUS41 KILN 231100 AAA
TAFCMH
TAF AMD
KCMH 231158Z 2312/2412 34005KT P6SM OVC004
      TEMPO 2312/2314 5SM BR
     FM231500 30005KT P6SM SCT250
     FM240400 VRB03KT P6SM BKN200=

USA.gov is the U.S. government's official web portal to all federal, state and local government web resources and services.